Brisbane - nearby METAR Reports

YBBN - Brisbane Intl Ar, Australia
Distance from station: NNE 11km
Updated: 19/08/2019 18:30
Clear
Clear
 Wind from W
Wind: W 30 km/h
Temperature: 20°C
Dew Point: -6°C
Humidity: 17%
Barometer: 1017 hPa
Summary: Clear
Visibility: greater than 10 km
2019/08/19 08:30 YBBN 190830Z 26016KT CAVOK 20/M06 Q1017
YAMB - Amberley, Australia
Distance from station: WSW 42km
Updated: 19/08/2019 18:30
Clear
Clear
 Wind from WSW
Wind: WSW 17 km/h
Temperature: 19°C
Dew Point: -5°C
Humidity: 19%
Barometer: 1018 hPa
Summary: Clear
Visibility: greater than 10 km
2019/08/19 08:30 YAMB 190830Z 25009KT CAVOK 19/M05 Q1018 FM0830 MOD TURB BLW 5000FT
 
YBCG - Coolangatta Aws, Australia
Distance from station: SSE 102km
Updated: 19/08/2019 18:30
Clear
Clear
 Wind from S
Wind: S 24 km/h
Temperature: 19°C
Dew Point: 12°C
Humidity: 64%
Barometer: 1016 hPa
Clouds: Clear
Visibility: 10 km
2019/08/19 08:30 YBCG 190830Z AUTO 17013KT 9999 // NCD 19/12 Q1016 RF00.0/000.0

Cumulus logo Cumulus Top Weather Sites AWN logo WOW logo PWS logo WU logo AWEKAS logo